sensor_id;sensor_type;location;lat;lon;timestamp;P1;durP1;ratioP1;P2;durP2;ratioP2
46505;SDS011;32220;49.808;9.968;2023-06-14T00:00:50;6.17;;;4.27;;
46505;SDS011;32220;49.808;9.968;2023-06-14T00:03:18;7.10;;;4.50;;
46505;SDS011;32220;49.808;9.968;2023-06-14T00:05:48;6.43;;;4.30;;
46505;SDS011;32220;49.808;9.968;2023-06-14T00:08:17;6.70;;;4.97;;
46505;SDS011;32220;49.808;9.968;2023-06-14T00:10:47;5.20;;;4.60;;
46505;SDS011;32220;49.808;9.968;2023-06-14T00:13:14;4.53;;;4.13;;
46505;SDS011;32220;49.808;9.968;2023-06-14T00:15:42;5.23;;;4.50;;
46505;SDS011;32220;49.808;9.968;2023-06-14T00:18:10;4.83;;;4.23;;
46505;SDS011;32220;49.808;9.968;2023-06-14T00:20:39;5.37;;;4.63;;
46505;SDS011;32220;49.808;9.968;2023-06-14T00:23:08;4.70;;;4.30;;
46505;SDS011;32220;49.808;9.968;2023-06-14T00:25:37;4.50;;;4.10;;
46505;SDS011;32220;49.808;9.968;2023-06-14T00:28:05;5.17;;;4.40;;
46505;SDS011;32220;49.808;9.968;2023-06-14T00:30:35;4.53;;;3.93;;
46505;SDS011;32220;49.808;9.968;2023-06-14T00:33:03;5.97;;;4.20;;
46505;SDS011;32220;49.808;9.968;2023-06-14T00:35:30;7.20;;;4.50;;
46505;SDS011;32220;49.808;9.968;2023-06-14T00:37:58;5.43;;;4.93;;
46505;SDS011;32220;49.808;9.968;2023-06-14T00:40:27;4.80;;;4.23;;
46505;SDS011;32220;49.808;9.968;2023-06-14T00:42:57;4.67;;;4.03;;
46505;SDS011;32220;49.808;9.968;2023-06-14T00:45:24;5.07;;;4.57;;
46505;SDS011;32220;49.808;9.968;2023-06-14T00:47:52;5.13;;;4.20;;
46505;SDS011;32220;49.808;9.968;2023-06-14T00:50:21;5.67;;;4.77;;
46505;SDS011;32220;49.808;9.968;2023-06-14T00:52:49;4.77;;;4.30;;
46505;SDS011;32220;49.808;9.968;2023-06-14T00:55:22;4.30;;;3.90;;
46505;SDS011;32220;49.808;9.968;2023-06-14T00:57:49;6.93;;;4.47;;
46505;SDS011;32220;49.808;9.968;2023-06-14T01:00:19;5.20;;;4.70;;
46505;SDS011;32220;49.808;9.968;2023-06-14T01:02:47;4.73;;;3.87;;
46505;SDS011;32220;49.808;9.968;2023-06-14T01:05:15;7.13;;;4.37;;
46505;SDS011;32220;49.808;9.968;2023-06-14T01:10:35;4.97;;;4.57;;
46505;SDS011;32220;49.808;9.968;2023-06-14T01:13:11;6.00;;;4.37;;
46505;SDS011;32220;49.808;9.968;2023-06-14T01:15:48;4.40;;;4.03;;
46505;SDS011;32220;49.808;9.968;2023-06-14T01:18:17;5.63;;;5.13;;
46505;SDS011;32220;49.808;9.968;2023-06-14T01:20:46;7.50;;;4.67;;
46505;SDS011;32220;49.808;9.968;2023-06-14T01:23:18;6.20;;;4.27;;
46505;SDS011;32220;49.808;9.968;2023-06-14T01:25:46;8.00;;;5.13;;
46505;SDS011;32220;49.808;9.968;2023-06-14T01:28:18;6.37;;;4.60;;
46505;SDS011;32220;49.808;9.968;2023-06-14T01:30:47;5.20;;;4.17;;
46505;SDS011;32220;49.808;9.968;2023-06-14T01:33:20;4.57;;;4.17;;
46505;SDS011;32220;49.808;9.968;2023-06-14T01:35:49;5.20;;;4.23;;
46505;SDS011;32220;49.808;9.968;2023-06-14T01:38:21;4.53;;;4.13;;
46505;SDS011;32220;49.808;9.968;2023-06-14T01:40:51;4.57;;;4.10;;
46505;SDS011;32220;49.808;9.968;2023-06-14T01:43:21;4.43;;;4.00;;
46505;SDS011;32220;49.808;9.968;2023-06-14T01:45:50;4.67;;;4.17;;
46505;SDS011;32220;49.808;9.968;2023-06-14T01:48:20;4.40;;;3.97;;
46505;SDS011;32220;49.808;9.968;2023-06-14T01:50:48;5.93;;;3.97;;
46505;SDS011;32220;49.808;9.968;2023-06-14T01:53:16;5.57;;;4.87;;
46505;SDS011;32220;49.808;9.968;2023-06-14T01:55:45;5.20;;;4.10;;
46505;SDS011;32220;49.808;9.968;2023-06-14T01:58:14;6.83;;;4.10;;
46505;SDS011;32220;49.808;9.968;2023-06-14T02:00:43;6.20;;;5.10;;
46505;SDS011;32220;49.808;9.968;2023-06-14T02:03:11;4.93;;;4.50;;
46505;SDS011;32220;49.808;9.968;2023-06-14T02:05:39;6.30;;;4.83;;
46505;SDS011;32220;49.808;9.968;2023-06-14T02:08:07;8.47;;;4.50;;
46505;SDS011;32220;49.808;9.968;2023-06-14T02:10:37;4.53;;;4.13;;
46505;SDS011;32220;49.808;9.968;2023-06-14T02:13:06;5.23;;;4.33;;
46505;SDS011;32220;49.808;9.968;2023-06-14T02:15:34;4.93;;;4.43;;
46505;SDS011;32220;49.808;9.968;2023-06-14T02:18:03;6.37;;;4.20;;
46505;SDS011;32220;49.808;9.968;2023-06-14T02:20:33;6.13;;;4.50;;
46505;SDS011;32220;49.808;9.968;2023-06-14T02:23:01;6.37;;;4.70;;
46505;SDS011;32220;49.808;9.968;2023-06-14T02:25:31;5.13;;;4.67;;
46505;SDS011;32220;49.808;9.968;2023-06-14T02:27:59;5.67;;;4.43;;
46505;SDS011;32220;49.808;9.968;2023-06-14T02:30:28;5.40;;;4.63;;
46505;SDS011;32220;49.808;9.968;2023-06-14T02:32:58;5.43;;;4.87;;
46505;SDS011;32220;49.808;9.968;2023-06-14T02:35:26;5.50;;;5.00;;
46505;SDS011;32220;49.808;9.968;2023-06-14T02:37:56;5.00;;;4.50;;
46505;SDS011;32220;49.808;9.968;2023-06-14T02:40:23;5.17;;;4.23;;
46505;SDS011;32220;49.808;9.968;2023-06-14T02:42:51;6.77;;;4.93;;
46505;SDS011;32220;49.808;9.968;2023-06-14T02:45:19;5.53;;;4.27;;
46505;SDS011;32220;49.808;9.968;2023-06-14T02:47:48;5.23;;;4.70;;
46505;SDS011;32220;49.808;9.968;2023-06-14T02:50:17;5.50;;;4.83;;
46505;SDS011;32220;49.808;9.968;2023-06-14T02:52:47;5.87;;;4.63;;
46505;SDS011;32220;49.808;9.968;2023-06-14T02:55:15;5.80;;;4.53;;
46505;SDS011;32220;49.808;9.968;2023-06-14T02:57:44;4.63;;;4.00;;
46505;SDS011;32220;49.808;9.968;2023-06-14T03:00:14;5.37;;;4.87;;
46505;SDS011;32220;49.808;9.968;2023-06-14T03:02:43;7.17;;;4.30;;
46505;SDS011;32220;49.808;9.968;2023-06-14T03:05:13;6.73;;;4.17;;
46505;SDS011;32220;49.808;9.968;2023-06-14T03:07:42;4.33;;;3.97;;
46505;SDS011;32220;49.808;9.968;2023-06-14T03:10:11;4.67;;;4.27;;
46505;SDS011;32220;49.808;9.968;2023-06-14T03:12:42;8.47;;;4.50;;
46505;SDS011;32220;49.808;9.968;2023-06-14T03:15:11;7.47;;;4.63;;
46505;SDS011;32220;49.808;9.968;2023-06-14T03:17:44;5.53;;;4.97;;
46505;SDS011;32220;49.808;9.968;2023-06-14T03:20:14;5.60;;;4.60;;
46505;SDS011;32220;49.808;9.968;2023-06-14T03:22:43;5.80;;;5.20;;
46505;SDS011;32220;49.808;9.968;2023-06-14T03:25:14;8.47;;;5.00;;
46505;SDS011;32220;49.808;9.968;2023-06-14T03:27:43;6.33;;;4.73;;
46505;SDS011;32220;49.808;9.968;2023-06-14T03:30:12;5.00;;;4.57;;
46505;SDS011;32220;49.808;9.968;2023-06-14T03:32:44;5.63;;;4.53;;
46505;SDS011;32220;49.808;9.968;2023-06-14T03:35:12;5.10;;;4.30;;
46505;SDS011;32220;49.808;9.968;2023-06-14T03:37:47;5.13;;;4.70;;
46505;SDS011;32220;49.808;9.968;2023-06-14T03:40:17;5.97;;;5.17;;
46505;SDS011;32220;49.808;9.968;2023-06-14T03:42:49;6.30;;;5.10;;
46505;SDS011;32220;49.808;9.968;2023-06-14T03:45:19;5.43;;;4.90;;
46505;SDS011;32220;49.808;9.968;2023-06-14T03:47:47;5.00;;;4.43;;
46505;SDS011;32220;49.808;9.968;2023-06-14T03:50:16;7.37;;;4.47;;
46505;SDS011;32220;49.808;9.968;2023-06-14T03:52:46;7.77;;;4.47;;
46505;SDS011;32220;49.808;9.968;2023-06-14T03:55:17;6.30;;;4.90;;
46505;SDS011;32220;49.808;9.968;2023-06-14T03:57:45;4.87;;;4.37;;
46505;SDS011;32220;49.808;9.968;2023-06-14T04:00:16;5.20;;;4.70;;
46505;SDS011;32220;49.808;9.968;2023-06-14T04:02:44;4.67;;;4.27;;
46505;SDS011;32220;49.808;9.968;2023-06-14T04:05:12;5.57;;;4.53;;
46505;SDS011;32220;49.808;9.968;2023-06-14T04:07:48;5.40;;;4.83;;
46505;SDS011;32220;49.808;9.968;2023-06-14T04:10:16;5.03;;;4.63;;
46505;SDS011;32220;49.808;9.968;2023-06-14T04:12:46;5.33;;;4.80;;
46505;SDS011;32220;49.808;9.968;2023-06-14T04:15:14;5.90;;;4.77;;
46505;SDS011;32220;49.808;9.968;2023-06-14T04:17:42;5.17;;;4.67;;
46505;SDS011;32220;49.808;9.968;2023-06-14T04:20:09;5.93;;;4.77;;
46505;SDS011;32220;49.808;9.968;2023-06-14T04:22:37;7.57;;;5.33;;
46505;SDS011;32220;49.808;9.968;2023-06-14T04:25:09;5.50;;;4.77;;
46505;SDS011;32220;49.808;9.968;2023-06-14T04:27:38;5.97;;;4.87;;
46505;SDS011;32220;49.808;9.968;2023-06-14T04:30:07;6.07;;;4.70;;
46505;SDS011;32220;49.808;9.968;2023-06-14T04:32:40;7.40;;;4.90;;
46505;SDS011;32220;49.808;9.968;2023-06-14T04:35:11;6.53;;;4.33;;
46505;SDS011;32220;49.808;9.968;2023-06-14T04:37:42;6.60;;;4.90;;
46505;SDS011;32220;49.808;9.968;2023-06-14T04:40:14;4.93;;;4.47;;
46505;SDS011;32220;49.808;9.968;2023-06-14T04:42:42;5.90;;;5.03;;
46505;SDS011;32220;49.808;9.968;2023-06-14T04:45:12;6.53;;;4.63;;
46505;SDS011;32220;49.808;9.968;2023-06-14T04:47:41;5.20;;;4.70;;
46505;SDS011;32220;49.808;9.968;2023-06-14T04:50:10;6.60;;;5.03;;
46505;SDS011;32220;49.808;9.968;2023-06-14T04:52:39;5.50;;;5.00;;
46505;SDS011;32220;49.808;9.968;2023-06-14T04:55:09;7.30;;;5.20;;
46505;SDS011;32220;49.808;9.968;2023-06-14T04:57:39;5.23;;;4.73;;
46505;SDS011;32220;49.808;9.968;2023-06-14T05:00:09;5.27;;;4.80;;
46505;SDS011;32220;49.808;9.968;2023-06-14T05:02:37;6.30;;;5.10;;
46505;SDS011;32220;49.808;9.968;2023-06-14T05:05:06;4.80;;;4.33;;
46505;SDS011;32220;49.808;9.968;2023-06-14T05:07:35;5.53;;;4.97;;
46505;SDS011;32220;49.808;9.968;2023-06-14T05:10:03;5.03;;;4.53;;
46505;SDS011;32220;49.808;9.968;2023-06-14T05:12:31;5.93;;;5.27;;
46505;SDS011;32220;49.808;9.968;2023-06-14T05:15:02;4.87;;;4.40;;
46505;SDS011;32220;49.808;9.968;2023-06-14T05:17:30;6.00;;;5.30;;
46505;SDS011;32220;49.808;9.968;2023-06-14T05:19:58;5.77;;;4.97;;
46505;SDS011;32220;49.808;9.968;2023-06-14T05:22:26;5.33;;;4.33;;
46505;SDS011;32220;49.808;9.968;2023-06-14T05:24:54;8.63;;;5.40;;
46505;SDS011;32220;49.808;9.968;2023-06-14T05:27:21;5.93;;;5.30;;
46505;SDS011;32220;49.808;9.968;2023-06-14T05:29:50;8.40;;;5.57;;
46505;SDS011;32220;49.808;9.968;2023-06-14T05:32:23;7.10;;;5.23;;
46505;SDS011;32220;49.808;9.968;2023-06-14T05:34:50;6.23;;;4.80;;
46505;SDS011;32220;49.808;9.968;2023-06-14T05:37:18;6.80;;;4.90;;
46505;SDS011;32220;49.808;9.968;2023-06-14T05:39:49;5.43;;;4.67;;
46505;SDS011;32220;49.808;9.968;2023-06-14T05:50:26;5.00;;;4.50;;
46505;SDS011;32220;49.808;9.968;2023-06-14T05:52:54;5.27;;;4.77;;
46505;SDS011;32220;49.808;9.968;2023-06-14T05:55:22;7.33;;;4.57;;
46505;SDS011;32220;49.808;9.968;2023-06-14T05:57:49;4.70;;;4.30;;
46505;SDS011;32220;49.808;9.968;2023-06-14T06:00:18;4.97;;;4.57;;
46505;SDS011;32220;49.808;9.968;2023-06-14T06:02:46;5.83;;;5.30;;
46505;SDS011;32220;49.808;9.968;2023-06-14T06:05:14;6.73;;;4.60;;
46505;SDS011;32220;49.808;9.968;2023-06-14T06:07:44;5.07;;;4.63;;
46505;SDS011;32220;49.808;9.968;2023-06-14T06:10:12;5.20;;;4.70;;
46505;SDS011;32220;49.808;9.968;2023-06-14T06:12:40;6.17;;;4.73;;
46505;SDS011;32220;49.808;9.968;2023-06-14T06:15:09;4.93;;;4.43;;
46505;SDS011;32220;49.808;9.968;2023-06-14T06:17:37;5.50;;;4.87;;
46505;SDS011;32220;49.808;9.968;2023-06-14T06:20:05;4.87;;;4.47;;
46505;SDS011;32220;49.808;9.968;2023-06-14T06:22:34;6.00;;;4.43;;
46505;SDS011;32220;49.808;9.968;2023-06-14T06:25:04;6.10;;;4.50;;
46505;SDS011;32220;49.808;9.968;2023-06-14T06:27:32;7.50;;;5.30;;
46505;SDS011;32220;49.808;9.968;2023-06-14T06:30:01;5.83;;;5.00;;
46505;SDS011;32220;49.808;9.968;2023-06-14T06:32:29;7.00;;;4.90;;
46505;SDS011;32220;49.808;9.968;2023-06-14T06:34:57;5.13;;;4.60;;
46505;SDS011;32220;49.808;9.968;2023-06-14T06:37:25;6.10;;;4.00;;
46505;SDS011;32220;49.808;9.968;2023-06-14T06:39:53;4.93;;;4.43;;
46505;SDS011;32220;49.808;9.968;2023-06-14T06:42:23;5.83;;;4.83;;
46505;SDS011;32220;49.808;9.968;2023-06-14T06:47:57;5.10;;;4.60;;
46505;SDS011;32220;49.808;9.968;2023-06-14T06:50:26;6.23;;;4.70;;
46505;SDS011;32220;49.808;9.968;2023-06-14T06:52:55;9.30;;;4.80;;
46505;SDS011;32220;49.808;9.968;2023-06-14T06:55:23;4.83;;;4.43;;
46505;SDS011;32220;49.808;9.968;2023-06-14T06:57:52;4.93;;;4.30;;
46505;SDS011;32220;49.808;9.968;2023-06-14T07:00:19;5.33;;;4.83;;
46505;SDS011;32220;49.808;9.968;2023-06-14T07:02:47;5.97;;;5.47;;
46505;SDS011;32220;49.808;9.968;2023-06-14T07:05:15;5.30;;;4.80;;
46505;SDS011;32220;49.808;9.968;2023-06-14T07:07:43;6.30;;;4.97;;
46505;SDS011;32220;49.808;9.968;2023-06-14T07:10:10;6.90;;;4.60;;
46505;SDS011;32220;49.808;9.968;2023-06-14T07:12:38;5.17;;;4.57;;
46505;SDS011;32220;49.808;9.968;2023-06-14T07:15:09;5.07;;;4.57;;
46505;SDS011;32220;49.808;9.968;2023-06-14T07:17:37;6.73;;;4.93;;
46505;SDS011;32220;49.808;9.968;2023-06-14T07:20:05;5.33;;;4.83;;
46505;SDS011;32220;49.808;9.968;2023-06-14T07:22:39;4.70;;;4.30;;
46505;SDS011;32220;49.808;9.968;2023-06-14T07:25:08;5.03;;;4.40;;
46505;SDS011;32220;49.808;9.968;2023-06-14T07:27:39;4.90;;;4.27;;
46505;SDS011;32220;49.808;9.968;2023-06-14T07:30:09;5.63;;;4.67;;
46505;SDS011;32220;49.808;9.968;2023-06-14T07:32:37;5.70;;;5.00;;
46505;SDS011;32220;49.808;9.968;2023-06-14T07:35:05;5.33;;;4.43;;
46505;SDS011;32220;49.808;9.968;2023-06-14T07:37:34;5.97;;;4.53;;
46505;SDS011;32220;49.808;9.968;2023-06-14T07:40:02;6.50;;;4.90;;
46505;SDS011;32220;49.808;9.968;2023-06-14T07:42:33;5.23;;;4.40;;
46505;SDS011;32220;49.808;9.968;2023-06-14T07:45:02;4.83;;;4.17;;
46505;SDS011;32220;49.808;9.968;2023-06-14T07:47:31;5.93;;;4.80;;
46505;SDS011;32220;49.808;9.968;2023-06-14T07:50:00;5.73;;;4.73;;
46505;SDS011;32220;49.808;9.968;2023-06-14T07:52:28;6.07;;;4.50;;
46505;SDS011;32220;49.808;9.968;2023-06-14T07:54:56;4.37;;;3.97;;
46505;SDS011;32220;49.808;9.968;2023-06-14T07:57:24;6.43;;;4.70;;
46505;SDS011;32220;49.808;9.968;2023-06-14T07:59:52;4.50;;;4.10;;
46505;SDS011;32220;49.808;9.968;2023-06-14T08:02:19;4.90;;;4.40;;
46505;SDS011;32220;49.808;9.968;2023-06-14T08:04:49;4.83;;;4.43;;
46505;SDS011;32220;49.808;9.968;2023-06-14T08:07:17;5.03;;;4.60;;
46505;SDS011;32220;49.808;9.968;2023-06-14T08:09:44;4.60;;;4.20;;
46505;SDS011;32220;49.808;9.968;2023-06-14T08:12:12;5.80;;;4.10;;
46505;SDS011;32220;49.808;9.968;2023-06-14T08:14:41;4.77;;;4.33;;
46505;SDS011;32220;49.808;9.968;2023-06-14T08:17:11;5.80;;;4.67;;
46505;SDS011;32220;49.808;9.968;2023-06-14T08:19:39;6.10;;;4.40;;
46505;SDS011;32220;49.808;9.968;2023-06-14T08:22:08;6.13;;;4.40;;
46505;SDS011;32220;49.808;9.968;2023-06-14T08:24:37;5.80;;;4.53;;
46505;SDS011;32220;49.808;9.968;2023-06-14T08:27:05;4.65;;;4.25;;
46505;SDS011;32220;49.808;9.968;2023-06-14T08:29:33;6.93;;;4.43;;
46505;SDS011;32220;49.808;9.968;2023-06-14T08:32:01;4.53;;;4.22;;
46505;SDS011;32220;49.808;9.968;2023-06-14T08:34:29;7.88;;;4.63;;
46505;SDS011;32220;49.808;9.968;2023-06-14T08:36:57;4.47;;;4.07;;
46505;SDS011;32220;49.808;9.968;2023-06-14T08:39:26;4.80;;;4.40;;
46505;SDS011;32220;49.808;9.968;2023-06-14T08:41:54;5.13;;;3.80;;
46505;SDS011;32220;49.808;9.968;2023-06-14T08:44:23;4.40;;;4.00;;
46505;SDS011;32220;49.808;9.968;2023-06-14T08:46:51;5.05;;;4.65;;
46505;SDS011;32220;49.808;9.968;2023-06-14T08:49:22;4.53;;;4.13;;
46505;SDS011;32220;49.808;9.968;2023-06-14T08:51:53;4.67;;;4.27;;
46505;SDS011;32220;49.808;9.968;2023-06-14T08:54:26;5.30;;;4.73;;
46505;SDS011;32220;49.808;9.968;2023-06-14T08:56:56;5.17;;;4.20;;
46505;SDS011;32220;49.808;9.968;2023-06-14T08:59:24;4.57;;;4.20;;
46505;SDS011;32220;49.808;9.968;2023-06-14T09:01:53;5.30;;;3.90;;
46505;SDS011;32220;49.808;9.968;2023-06-14T09:04:23;5.00;;;4.23;;
46505;SDS011;32220;49.808;9.968;2023-06-14T09:06:55;4.97;;;3.77;;
46505;SDS011;32220;49.808;9.968;2023-06-14T09:09:24;4.73;;;3.63;;
46505;SDS011;32220;49.808;9.968;2023-06-14T09:11:53;4.13;;;3.73;;
46505;SDS011;32220;49.808;9.968;2023-06-14T09:14:23;5.13;;;3.50;;
46505;SDS011;32220;49.808;9.968;2023-06-14T09:16:52;3.90;;;3.47;;
46505;SDS011;32220;49.808;9.968;2023-06-14T09:19:23;4.73;;;4.33;;
46505;SDS011;32220;49.808;9.968;2023-06-14T09:21:52;4.00;;;3.70;;
46505;SDS011;32220;49.808;9.968;2023-06-14T09:24:21;5.47;;;3.97;;
46505;SDS011;32220;49.808;9.968;2023-06-14T09:26:54;4.50;;;4.10;;
46505;SDS011;32220;49.808;9.968;2023-06-14T09:29:21;6.77;;;4.10;;
46505;SDS011;32220;49.808;9.968;2023-06-14T09:31:49;4.23;;;3.87;;
46505;SDS011;32220;49.808;9.968;2023-06-14T09:34:16;4.17;;;3.77;;
46505;SDS011;32220;49.808;9.968;2023-06-14T09:36:49;4.20;;;3.50;;
46505;SDS011;32220;49.808;9.968;2023-06-14T09:39:17;5.07;;;3.63;;
46505;SDS011;32220;49.808;9.968;2023-06-14T09:41:45;4.10;;;3.80;;
46505;SDS011;32220;49.808;9.968;2023-06-14T09:44:14;3.90;;;3.60;;
46505;SDS011;32220;49.808;9.968;2023-06-14T09:46:44;3.80;;;3.50;;
46505;SDS011;32220;49.808;9.968;2023-06-14T09:49:11;3.90;;;3.50;;
46505;SDS011;32220;49.808;9.968;2023-06-14T09:51:42;6.32;;;3.40;;
46505;SDS011;32220;49.808;9.968;2023-06-14T09:54:12;3.72;;;3.33;;
46505;SDS011;32220;49.808;9.968;2023-06-14T09:56:46;3.67;;;3.38;;
46505;SDS011;32220;49.808;9.968;2023-06-14T09:59:25;3.80;;;3.50;;
46505;SDS011;32220;49.808;9.968;2023-06-14T10:01:58;4.50;;;3.47;;
46505;SDS011;32220;49.808;9.968;2023-06-14T10:04:29;7.23;;;3.70;;
46505;SDS011;32220;49.808;9.968;2023-06-14T10:06:58;3.70;;;3.40;;
46505;SDS011;32220;49.808;9.968;2023-06-14T10:09:28;3.73;;;3.30;;
46505;SDS011;32220;49.808;9.968;2023-06-14T10:11:57;5.33;;;3.63;;
46505;SDS011;32220;49.808;9.968;2023-06-14T10:14:27;4.20;;;3.50;;
46505;SDS011;32220;49.808;9.968;2023-06-14T10:16:59;3.83;;;3.17;;
46505;SDS011;32220;49.808;9.968;2023-06-14T10:19:34;4.27;;;3.30;;
46505;SDS011;32220;49.808;9.968;2023-06-14T10:22:08;4.87;;;3.53;;
46505;SDS011;32220;49.808;9.968;2023-06-14T10:24:40;3.67;;;3.30;;
46505;SDS011;32220;49.808;9.968;2023-06-14T10:27:09;3.67;;;3.40;;
46505;SDS011;32220;49.808;9.968;2023-06-14T10:35:32;4.40;;;2.97;;
46505;SDS011;32220;49.808;9.968;2023-06-14T10:38:07;4.17;;;3.10;;
46505;SDS011;32220;49.808;9.968;2023-06-14T10:40:36;3.73;;;3.37;;
46505;SDS011;32220;49.808;9.968;2023-06-14T10:43:23;3.67;;;3.37;;
46505;SDS011;32220;49.808;9.968;2023-06-14T10:48:56;3.80;;;3.37;;
46505;SDS011;32220;49.808;9.968;2023-06-14T10:51:25;4.50;;;3.20;;
46505;SDS011;32220;49.808;9.968;2023-06-14T10:53:58;3.37;;;2.87;;
46505;SDS011;32220;49.808;9.968;2023-06-14T10:56:27;3.40;;;3.00;;
46505;SDS011;32220;49.808;9.968;2023-06-14T10:58:56;3.30;;;2.80;;
46505;SDS011;32220;49.808;9.968;2023-06-14T11:01:31;3.63;;;3.33;;
46505;SDS011;32220;49.808;9.968;2023-06-14T11:04:07;3.97;;;3.33;;
46505;SDS011;32220;49.808;9.968;2023-06-14T11:06:45;3.50;;;3.00;;
46505;SDS011;32220;49.808;9.968;2023-06-14T11:12:14;4.03;;;3.63;;
46505;SDS011;32220;49.808;9.968;2023-06-14T11:14:45;3.50;;;3.20;;
46505;SDS011;32220;49.808;9.968;2023-06-14T11:17:15;3.60;;;3.30;;
46505;SDS011;32220;49.808;9.968;2023-06-14T11:19:43;5.40;;;3.27;;
46505;SDS011;32220;49.808;9.968;2023-06-14T11:22:11;4.83;;;3.13;;
46505;SDS011;32220;49.808;9.968;2023-06-14T11:24:40;3.50;;;3.20;;
46505;SDS011;32220;49.808;9.968;2023-06-14T11:27:09;3.50;;;2.90;;
46505;SDS011;32220;49.808;9.968;2023-06-14T11:29:38;3.57;;;3.27;;
46505;SDS011;32220;49.808;9.968;2023-06-14T11:32:15;3.40;;;2.90;;
46505;SDS011;32220;49.808;9.968;2023-06-14T11:34:45;5.40;;;2.87;;
46505;SDS011;32220;49.808;9.968;2023-06-14T11:37:13;3.43;;;2.77;;
46505;SDS011;32220;49.808;9.968;2023-06-14T11:39:43;3.20;;;3.00;;
46505;SDS011;32220;49.808;9.968;2023-06-14T11:42:13;2.80;;;2.60;;
46505;SDS011;32220;49.808;9.968;2023-06-14T11:44:41;2.90;;;2.70;;
46505;SDS011;32220;49.808;9.968;2023-06-14T11:47:09;3.00;;;2.73;;
46505;SDS011;32220;49.808;9.968;2023-06-14T11:49:38;2.93;;;2.73;;
46505;SDS011;32220;49.808;9.968;2023-06-14T11:52:07;3.37;;;3.00;;
46505;SDS011;32220;49.808;9.968;2023-06-14T11:54:35;5.23;;;3.33;;
46505;SDS011;32220;49.808;9.968;2023-06-14T11:57:18;3.57;;;3.27;;
46505;SDS011;32220;49.808;9.968;2023-06-14T12:00:12;4.63;;;2.93;;
46505;SDS011;32220;49.808;9.968;2023-06-14T12:02:41;3.17;;;2.90;;
46505;SDS011;32220;49.808;9.968;2023-06-14T12:05:10;4.05;;;2.78;;
46505;SDS011;32220;49.808;9.968;2023-06-14T12:07:38;3.85;;;2.55;;
46505;SDS011;32220;49.808;9.968;2023-06-14T12:10:07;4.13;;;3.00;;
46505;SDS011;32220;49.808;9.968;2023-06-14T12:12:37;4.55;;;3.10;;
46505;SDS011;32220;49.808;9.968;2023-06-14T12:15:14;4.15;;;2.95;;
46505;SDS011;32220;49.808;9.968;2023-06-14T12:17:51;3.70;;;2.80;;
46505;SDS011;32220;49.808;9.968;2023-06-14T12:20:30;3.80;;;2.70;;
46505;SDS011;32220;49.808;9.968;2023-06-14T12:22:58;4.30;;;2.83;;
46505;SDS011;32220;49.808;9.968;2023-06-14T12:25:37;3.80;;;2.85;;
46505;SDS011;32220;49.808;9.968;2023-06-14T12:28:10;3.08;;;2.47;;
46505;SDS011;32220;49.808;9.968;2023-06-14T12:33:25;4.68;;;3.22;;
46505;SDS011;32220;49.808;9.968;2023-06-14T12:35:56;3.45;;;2.72;;
46505;SDS011;32220;49.808;9.968;2023-06-14T12:38:26;4.03;;;3.15;;
46505;SDS011;32220;49.808;9.968;2023-06-14T12:44:44;3.13;;;2.78;;
46505;SDS011;32220;49.808;9.968;2023-06-14T12:47:15;2.83;;;2.60;;
46505;SDS011;32220;49.808;9.968;2023-06-14T12:49:43;3.15;;;2.95;;
46505;SDS011;32220;49.808;9.968;2023-06-14T12:52:12;3.30;;;2.88;;
46505;SDS011;32220;49.808;9.968;2023-06-14T12:54:40;4.85;;;2.60;;
46505;SDS011;32220;49.808;9.968;2023-06-14T12:57:08;2.58;;;2.38;;
46505;SDS011;32220;49.808;9.968;2023-06-14T12:59:35;3.65;;;2.78;;
46505;SDS011;32220;49.808;9.968;2023-06-14T13:02:13;2.58;;;2.40;;
46505;SDS011;32220;49.808;9.968;2023-06-14T13:04:42;3.47;;;3.05;;
46505;SDS011;32220;49.808;9.968;2023-06-14T13:07:12;7.13;;;3.72;;
46505;SDS011;32220;49.808;9.968;2023-06-14T13:09:41;3.20;;;2.45;;
46505;SDS011;32220;49.808;9.968;2023-06-14T13:12:09;3.20;;;2.60;;
46505;SDS011;32220;49.808;9.968;2023-06-14T13:14:38;3.30;;;3.00;;
46505;SDS011;32220;49.808;9.968;2023-06-14T13:17:07;3.27;;;2.90;;
46505;SDS011;32220;49.808;9.968;2023-06-14T13:19:36;3.22;;;2.40;;
46505;SDS011;32220;49.808;9.968;2023-06-14T13:22:04;2.88;;;2.58;;
46505;SDS011;32220;49.808;9.968;2023-06-14T13:24:33;3.25;;;2.40;;
46505;SDS011;32220;49.808;9.968;2023-06-14T13:27:01;2.85;;;2.65;;
46505;SDS011;32220;49.808;9.968;2023-06-14T13:29:35;2.72;;;2.53;;
46505;SDS011;32220;49.808;9.968;2023-06-14T13:32:03;3.70;;;2.50;;
46505;SDS011;32220;49.808;9.968;2023-06-14T13:34:39;2.88;;;2.58;;
46505;SDS011;32220;49.808;9.968;2023-06-14T13:37:15;3.72;;;2.72;;
46505;SDS011;32220;49.808;9.968;2023-06-14T13:39:45;3.03;;;2.78;;
46505;SDS011;32220;49.808;9.968;2023-06-14T13:42:22;3.20;;;2.50;;
46505;SDS011;32220;49.808;9.968;2023-06-14T13:45:18;4.15;;;2.72;;
46505;SDS011;32220;49.808;9.968;2023-06-14T13:47:48;2.58;;;2.38;;
46505;SDS011;32220;49.808;9.968;2023-06-14T13:50:33;3.85;;;2.75;;
46505;SDS011;32220;49.808;9.968;2023-06-14T13:53:05;2.95;;;2.72;;
46505;SDS011;32220;49.808;9.968;2023-06-14T13:55:41;4.70;;;2.88;;
46505;SDS011;32220;49.808;9.968;2023-06-14T13:58:13;4.30;;;3.03;;
46505;SDS011;32220;49.808;9.968;2023-06-14T14:00:43;3.97;;;2.80;;
46505;SDS011;32220;49.808;9.968;2023-06-14T14:03:10;3.67;;;2.55;;
46505;SDS011;32220;49.808;9.968;2023-06-14T14:05:37;3.25;;;2.55;;
46505;SDS011;32220;49.808;9.968;2023-06-14T14:08:05;3.63;;;2.95;;
46505;SDS011;32220;49.808;9.968;2023-06-14T14:10:48;3.55;;;2.50;;
46505;SDS011;32220;49.808;9.968;2023-06-14T14:13:16;2.47;;;2.35;;
46505;SDS011;32220;49.808;9.968;2023-06-14T14:15:44;3.05;;;2.33;;
46505;SDS011;32220;49.808;9.968;2023-06-14T14:18:12;3.13;;;2.78;;
46505;SDS011;32220;49.808;9.968;2023-06-14T14:20:40;2.45;;;2.25;;
46505;SDS011;32220;49.808;9.968;2023-06-14T14:23:08;3.00;;;2.40;;
46505;SDS011;32220;49.808;9.968;2023-06-14T14:25:35;2.72;;;2.50;;
46505;SDS011;32220;49.808;9.968;2023-06-14T14:28:04;3.90;;;2.70;;
46505;SDS011;32220;49.808;9.968;2023-06-14T14:30:32;2.65;;;2.45;;
46505;SDS011;32220;49.808;9.968;2023-06-14T14:33:00;2.45;;;2.25;;
46505;SDS011;32220;49.808;9.968;2023-06-14T14:35:27;2.88;;;2.33;;
46505;SDS011;32220;49.808;9.968;2023-06-14T14:37:56;2.78;;;2.58;;
46505;SDS011;32220;49.808;9.968;2023-06-14T14:40:24;5.35;;;2.75;;
46505;SDS011;32220;49.808;9.968;2023-06-14T14:42:52;2.95;;;2.63;;
46505;SDS011;32220;49.808;9.968;2023-06-14T14:45:21;2.40;;;2.20;;
46505;SDS011;32220;49.808;9.968;2023-06-14T14:47:48;4.30;;;2.80;;
46505;SDS011;32220;49.808;9.968;2023-06-14T14:50:16;3.10;;;2.73;;
46505;SDS011;32220;49.808;9.968;2023-06-14T14:52:43;3.00;;;2.77;;
46505;SDS011;32220;49.808;9.968;2023-06-14T14:55:11;3.60;;;2.47;;
46505;SDS011;32220;49.808;9.968;2023-06-14T14:57:39;2.70;;;2.50;;
46505;SDS011;32220;49.808;9.968;2023-06-14T15:00:07;3.40;;;3.07;;
46505;SDS011;32220;49.808;9.968;2023-06-14T15:02:37;3.10;;;2.57;;
46505;SDS011;32220;49.808;9.968;2023-06-14T15:05:05;3.57;;;2.70;;
46505;SDS011;32220;49.808;9.968;2023-06-14T15:07:33;3.20;;;2.40;;
46505;SDS011;32220;49.808;9.968;2023-06-14T15:10:01;2.50;;;2.30;;
46505;SDS011;32220;49.808;9.968;2023-06-14T15:12:31;3.17;;;2.63;;
46505;SDS011;32220;49.808;9.968;2023-06-14T15:14:58;2.70;;;2.50;;
46505;SDS011;32220;49.808;9.968;2023-06-14T15:17:26;2.80;;;2.60;;
46505;SDS011;32220;49.808;9.968;2023-06-14T15:19:57;3.13;;;2.50;;
46505;SDS011;32220;49.808;9.968;2023-06-14T15:22:25;2.90;;;2.70;;
46505;SDS011;32220;49.808;9.968;2023-06-14T15:24:53;2.60;;;2.40;;
46505;SDS011;32220;49.808;9.968;2023-06-14T15:27:21;2.50;;;2.30;;
46505;SDS011;32220;49.808;9.968;2023-06-14T15:29:49;2.30;;;2.20;;
46505;SDS011;32220;49.808;9.968;2023-06-14T15:32:16;2.40;;;2.20;;
46505;SDS011;32220;49.808;9.968;2023-06-14T15:34:44;3.57;;;2.40;;